createdAt,value
2023-05-24T00:00:35.835Z,7.07
2023-05-24T00:03:04.988Z,6.40
2023-05-24T00:05:32.345Z,7.03
2023-05-24T00:08:00.560Z,6.70
2023-05-24T00:10:27.826Z,7.80
2023-05-24T00:12:58.425Z,7.47
2023-05-24T00:15:25.753Z,7.40
2023-05-24T00:17:53.165Z,7.38
2023-05-24T00:20:21.232Z,6.50
2023-05-24T00:22:48.777Z,6.88
2023-05-24T00:25:16.143Z,6.63
2023-05-24T00:27:43.315Z,6.60
2023-05-24T00:30:11.126Z,6.60
2023-05-24T00:32:38.415Z,6.38
2023-05-24T00:35:06.440Z,6.63
2023-05-24T00:37:34.116Z,6.05
2023-05-24T00:40:01.399Z,6.43
2023-05-24T00:42:28.778Z,6.70
2023-05-24T00:44:56.732Z,6.30
2023-05-24T00:47:24.360Z,6.65
2023-05-24T00:49:52.028Z,6.55
2023-05-24T00:52:19.861Z,6.43
2023-05-24T00:54:48.286Z,6.45
2023-05-24T00:57:15.950Z,6.30
2023-05-24T00:59:43.577Z,6.78
2023-05-24T01:02:11.023Z,6.63
2023-05-24T01:04:38.410Z,6.35
2023-05-24T01:07:27.290Z,6.68
2023-05-24T01:10:25.445Z,8.32
2023-05-24T01:13:06.198Z,8.82
2023-05-24T01:15:57.246Z,8.57
2023-05-24T01:18:33.508Z,7.35
2023-05-24T01:21:13.548Z,7.38
2023-05-24T01:23:52.782Z,7.13
2023-05-24T01:26:40.512Z,7.50
2023-05-24T01:29:08.663Z,7.30
2023-05-24T01:31:38.147Z,7.07
2023-05-24T01:34:05.335Z,7.35
2023-05-24T01:36:33.116Z,6.97
2023-05-24T01:39:00.719Z,7.28
2023-05-24T01:41:34.104Z,6.75
2023-05-24T01:44:13.519Z,7.22
2023-05-24T01:46:41.351Z,7.30
2023-05-24T01:49:22.784Z,7.07
2023-05-24T01:51:56.307Z,7.22
2023-05-24T01:54:32.922Z,8.07
2023-05-24T01:57:05.481Z,6.95
2023-05-24T01:59:34.334Z,6.72
2023-05-24T02:02:02.097Z,7.18
2023-05-24T02:04:29.972Z,7.32
2023-05-24T02:06:57.505Z,7.00
2023-05-24T02:09:25.269Z,6.78
2023-05-24T02:11:52.376Z,7.55
2023-05-24T02:14:20.108Z,7.50
2023-05-24T02:16:48.083Z,8.45
2023-05-24T02:19:15.920Z,8.20
2023-05-24T02:21:43.597Z,7.15
2023-05-24T02:24:12.796Z,8.52
2023-05-24T02:26:41.161Z,8.43
2023-05-24T02:29:08.723Z,7.32
2023-05-24T02:31:36.205Z,8.60
2023-05-24T02:34:08.238Z,8.88
2023-05-24T02:36:41.215Z,9.43
2023-05-24T02:39:08.738Z,9.73
2023-05-24T02:41:36.292Z,9.35
2023-05-24T02:44:03.749Z,9.82
2023-05-24T02:46:31.295Z,9.40
2023-05-24T02:48:58.903Z,9.70
2023-05-24T02:51:26.916Z,8.48
2023-05-24T02:53:55.534Z,7.93
2023-05-24T02:56:23.092Z,8.32
2023-05-24T02:58:50.507Z,7.65
2023-05-24T03:01:17.831Z,6.90
2023-05-24T03:03:45.974Z,6.90
2023-05-24T03:06:16.743Z,7.20
2023-05-24T03:08:46.334Z,6.60
2023-05-24T03:11:14.314Z,6.32
2023-05-24T03:13:42.817Z,6.05
2023-05-24T03:16:10.974Z,5.90
2023-05-24T03:18:38.778Z,5.80
2023-05-24T03:21:07.701Z,5.57
2023-05-24T03:23:35.340Z,4.63
2023-05-24T03:26:03.078Z,4.80
2023-05-24T03:28:30.497Z,4.30
2023-05-24T03:30:58.382Z,4.72
2023-05-24T03:33:26.499Z,4.32
2023-05-24T03:35:54.057Z,4.47
2023-05-24T03:38:21.751Z,3.97
2023-05-24T03:40:49.238Z,3.78
2023-05-24T03:43:18.628Z,3.97
2023-05-24T03:45:50.311Z,3.83
2023-05-24T03:48:20.977Z,3.88
2023-05-24T03:50:50.953Z,3.78
2023-05-24T03:53:19.217Z,3.22
2023-05-24T03:55:47.717Z,3.58
2023-05-24T03:58:15.261Z,3.45
2023-05-24T04:00:42.774Z,3.28
2023-05-24T04:03:11.286Z,3.13
2023-05-24T04:05:39.857Z,3.38
2023-05-24T04:08:07.155Z,3.42
2023-05-24T04:10:37.975Z,3.50
2023-05-24T04:13:05.472Z,3.40
2023-05-24T04:15:38.265Z,3.13
2023-05-24T04:18:06.366Z,3.17
2023-05-24T04:20:35.404Z,3.03
2023-05-24T04:23:02.969Z,3.22
2023-05-24T04:25:31.212Z,2.83
2023-05-24T04:27:58.839Z,2.95
2023-05-24T04:30:26.699Z,3.15
2023-05-24T04:32:54.132Z,3.15
2023-05-24T04:35:21.779Z,3.22
2023-05-24T04:37:50.528Z,3.22
2023-05-24T04:40:23.297Z,2.95
2023-05-24T04:42:51.466Z,2.63
2023-05-24T04:45:19.192Z,2.70
2023-05-24T04:47:46.956Z,2.67
2023-05-24T04:50:14.528Z,2.53
2023-05-24T04:52:42.134Z,2.72
2023-05-24T04:55:10.416Z,2.83
2023-05-24T04:57:37.886Z,2.55
2023-05-24T05:00:07.616Z,2.20
2023-05-24T05:02:35.256Z,2.60
2023-05-24T05:05:03.354Z,2.70
2023-05-24T05:07:30.914Z,2.40
2023-05-24T05:09:58.798Z,2.60
2023-05-24T05:12:26.355Z,2.33
2023-05-24T05:14:53.959Z,2.00
2023-05-24T05:17:22.216Z,2.10
2023-05-24T05:19:49.945Z,2.45
2023-05-24T05:22:18.093Z,2.70
2023-05-24T05:24:45.854Z,2.10
2023-05-24T05:27:13.322Z,1.98
2023-05-24T05:29:41.798Z,1.73
2023-05-24T05:32:09.748Z,2.10
2023-05-24T05:34:37.164Z,1.77
2023-05-24T05:37:05.104Z,1.95
2023-05-24T05:39:32.637Z,1.58
2023-05-24T05:42:01.548Z,1.70
2023-05-24T05:44:29.274Z,1.55
2023-05-24T05:46:56.754Z,1.40
2023-05-24T05:49:24.579Z,1.70
2023-05-24T05:51:53.339Z,1.77
2023-05-24T05:54:21.072Z,1.38
2023-05-24T05:56:48.650Z,1.40
2023-05-24T05:59:16.421Z,1.15
2023-05-24T06:01:47.506Z,1.30
2023-05-24T06:04:16.681Z,1.10
2023-05-24T06:06:50.108Z,1.08
2023-05-24T06:09:17.713Z,0.93
2023-05-24T06:11:45.516Z,1.30
2023-05-24T06:14:13.621Z,1.25
2023-05-24T06:16:43.804Z,1.23
2023-05-24T06:19:11.398Z,1.50
2023-05-24T06:21:39.290Z,1.00
2023-05-24T06:24:10.010Z,0.93
2023-05-24T06:26:37.792Z,1.08
2023-05-24T06:29:05.400Z,1.00
2023-05-24T06:31:33.336Z,0.80
2023-05-24T06:34:03.970Z,1.20
2023-05-24T06:36:41.642Z,1.30
2023-05-24T06:39:11.363Z,1.30
2023-05-24T06:41:39.443Z,1.38
2023-05-24T06:44:07.471Z,1.50
2023-05-24T06:46:35.074Z,1.38
2023-05-24T06:49:03.091Z,0.85
2023-05-24T06:51:31.602Z,1.35
2023-05-24T06:54:00.310Z,1.45
2023-05-24T06:56:29.385Z,1.05
2023-05-24T06:58:57.437Z,1.17
2023-05-24T07:01:25.287Z,1.42
2023-05-24T07:03:53.213Z,1.10
2023-05-24T07:06:21.097Z,1.33
2023-05-24T07:08:48.826Z,0.93
2023-05-24T07:11:16.725Z,1.20
2023-05-24T07:13:44.318Z,1.30
2023-05-24T07:16:12.141Z,1.38
2023-05-24T07:18:42.060Z,1.42
2023-05-24T07:21:10.083Z,1.27
2023-05-24T07:23:38.596Z,1.25
2023-05-24T07:26:06.434Z,1.70
2023-05-24T07:28:34.866Z,2.38
2023-05-24T07:31:02.306Z,1.13
2023-05-24T07:33:29.967Z,1.10
2023-05-24T07:35:58.787Z,1.30
2023-05-24T07:38:26.920Z,1.10
2023-05-24T07:40:54.664Z,1.42
2023-05-24T07:43:22.284Z,1.15
2023-05-24T07:45:49.960Z,1.13
2023-05-24T07:48:17.380Z,1.33
2023-05-24T07:50:48.926Z,1.02
2023-05-24T07:55:47.194Z,1.10
2023-05-24T07:58:14.717Z,1.00
2023-05-24T08:00:42.369Z,1.30
2023-05-24T08:03:09.817Z,1.20
2023-05-24T08:05:37.340Z,1.10
2023-05-24T08:08:05.273Z,1.48
2023-05-24T08:10:32.738Z,1.52
2023-05-24T08:13:00.575Z,1.20
2023-05-24T08:15:27.879Z,0.98
2023-05-24T08:17:55.671Z,1.20
2023-05-24T08:20:23.921Z,1.40
2023-05-24T08:22:51.755Z,1.60
2023-05-24T08:25:20.281Z,1.55
2023-05-24T08:27:47.701Z,1.60
2023-05-24T08:30:15.325Z,1.65
2023-05-24T08:32:42.787Z,1.92
2023-05-24T08:35:19.172Z,1.83
2023-05-24T08:37:48.675Z,1.90
2023-05-24T08:40:16.209Z,1.80
2023-05-24T08:42:45.287Z,2.20
2023-05-24T08:45:14.088Z,1.95
2023-05-24T08:47:42.790Z,1.85
2023-05-24T08:50:12.073Z,2.00
2023-05-24T08:52:40.900Z,1.83
2023-05-24T08:55:12.156Z,1.85
2023-05-24T08:57:41.860Z,1.80
2023-05-24T09:00:14.302Z,2.10
2023-05-24T09:02:43.100Z,1.60
2023-05-24T09:05:12.826Z,1.70
2023-05-24T09:07:42.586Z,1.58
2023-05-24T09:10:11.321Z,1.55
2023-05-24T09:12:40.681Z,1.40
2023-05-24T09:15:09.119Z,1.75
2023-05-24T09:17:38.196Z,1.80
2023-05-24T09:20:11.210Z,1.35
2023-05-24T09:22:42.285Z,1.40
2023-05-24T09:25:13.322Z,1.52
2023-05-24T09:27:41.014Z,1.30
2023-05-24T09:30:11.355Z,1.02
2023-05-24T09:32:39.240Z,1.25
2023-05-24T09:35:10.899Z,1.45
2023-05-24T09:37:42.305Z,1.30
2023-05-24T09:40:20.450Z,1.10
2023-05-24T09:42:51.755Z,1.30
2023-05-24T09:45:19.639Z,1.58
2023-05-24T09:47:47.316Z,1.67
2023-05-24T09:50:17.620Z,1.15
2023-05-24T09:52:45.973Z,1.58
2023-05-24T09:55:20.046Z,1.30
2023-05-24T09:58:04.022Z,1.40
2023-05-24T10:00:41.361Z,1.38
2023-05-24T10:03:15.438Z,1.30
2023-05-24T10:05:47.030Z,1.20
2023-05-24T10:08:14.954Z,1.30
2023-05-24T10:10:44.107Z,0.90
2023-05-24T10:13:13.261Z,1.00
2023-05-24T10:15:41.087Z,1.27
2023-05-24T10:18:13.924Z,1.00
2023-05-24T10:20:43.490Z,1.25
2023-05-24T10:23:11.914Z,1.42
2023-05-24T10:25:42.504Z,1.15
2023-05-24T10:28:13.151Z,1.17
2023-05-24T10:30:44.914Z,1.08
2023-05-24T10:33:14.898Z,0.95
2023-05-24T10:35:44.069Z,1.08
2023-05-24T10:38:12.082Z,1.02
2023-05-24T10:40:43.948Z,1.20
2023-05-24T10:43:11.861Z,1.23
2023-05-24T10:45:41.406Z,1.30
2023-05-24T10:48:18.830Z,1.10
2023-05-24T10:50:47.108Z,1.10
2023-05-24T10:53:15.189Z,0.90
2023-05-24T10:55:54.357Z,1.25
2023-05-24T10:58:27.828Z,1.10
2023-05-24T11:00:56.374Z,1.35
2023-05-24T11:03:25.181Z,1.35
2023-05-24T11:05:55.178Z,1.55
2023-05-24T11:08:36.480Z,1.45
2023-05-24T11:11:22.387Z,1.58
2023-05-24T11:13:57.874Z,1.70
2023-05-24T11:16:38.715Z,1.50
2023-05-24T11:19:22.150Z,1.08
2023-05-24T11:21:51.739Z,1.30
2023-05-24T11:24:20.948Z,1.10
2023-05-24T11:26:48.713Z,1.35
2023-05-24T11:29:18.351Z,1.00
2023-05-24T11:31:54.520Z,1.20
2023-05-24T11:34:22.427Z,1.55
2023-05-24T11:36:50.573Z,1.27
2023-05-24T11:39:18.587Z,1.35
2023-05-24T11:41:47.552Z,1.10
2023-05-24T11:44:21.594Z,1.20
2023-05-24T11:46:49.246Z,1.52
2023-05-24T11:49:17.680Z,1.58
2023-05-24T11:51:45.179Z,1.60
2023-05-24T11:54:12.919Z,1.70
2023-05-24T11:56:40.734Z,1.23
2023-05-24T11:59:14.480Z,1.30
2023-05-24T12:01:42.513Z,1.40
2023-05-24T12:04:12.423Z,1.30
2023-05-24T12:06:42.320Z,1.40
2023-05-24T12:09:14.334Z,1.13
2023-05-24T12:11:47.763Z,1.25
2023-05-24T12:14:19.331Z,1.05
2023-05-24T12:16:48.004Z,1.05
2023-05-24T12:19:32.188Z,1.38
2023-05-24T12:22:01.162Z,1.17
2023-05-24T12:24:28.765Z,1.33
2023-05-24T12:27:08.108Z,1.20
2023-05-24T12:29:41.167Z,1.52
2023-05-24T12:32:13.557Z,1.50
2023-05-24T12:34:43.203Z,1.50
2023-05-24T12:37:13.360Z,1.52
2023-05-24T12:39:43.372Z,1.48
2023-05-24T12:42:15.167Z,1.30
2023-05-24T12:44:42.777Z,1.70
2023-05-24T12:47:10.340Z,1.90
2023-05-24T12:49:38.152Z,1.40
2023-05-24T12:52:06.908Z,1.60
2023-05-24T12:54:34.610Z,1.30
2023-05-24T12:57:03.468Z,1.65
2023-05-24T12:59:31.535Z,1.30
2023-05-24T13:01:59.057Z,1.20
2023-05-24T13:04:27.921Z,1.38
2023-05-24T13:06:56.303Z,1.40
2023-05-24T13:09:24.204Z,1.48
2023-05-24T13:11:52.922Z,1.60
2023-05-24T13:14:20.757Z,1.27
2023-05-24T13:16:48.346Z,1.23
2023-05-24T13:19:17.606Z,1.48
2023-05-24T13:21:45.974Z,1.55
2023-05-24T13:24:16.651Z,1.55
2023-05-24T13:26:45.447Z,1.60
2023-05-24T13:31:43.952Z,1.80
2023-05-24T13:34:12.093Z,1.75
2023-05-24T13:36:40.322Z,1.52
2023-05-24T13:41:41.650Z,1.35
2023-05-24T13:44:10.300Z,1.70
2023-05-24T13:46:38.963Z,1.77
2023-05-24T13:49:09.776Z,1.52
2023-05-24T13:51:38.646Z,1.85
2023-05-24T13:54:07.888Z,1.52
2023-05-24T13:56:36.791Z,1.70
2023-05-24T13:59:05.647Z,1.75
2023-05-24T14:01:34.976Z,1.60
2023-05-24T14:04:03.290Z,1.50
2023-05-24T14:06:33.017Z,1.60
2023-05-24T14:09:01.201Z,1.63
2023-05-24T14:11:32.029Z,1.58
2023-05-24T14:16:31.417Z,1.65
2023-05-24T14:18:59.249Z,1.48
2023-05-24T14:21:29.403Z,1.80
2023-05-24T14:23:56.656Z,1.80
2023-05-24T14:26:24.338Z,1.90
2023-05-24T14:28:55.983Z,1.92
2023-05-24T14:31:24.943Z,1.70
2023-05-24T14:33:52.454Z,1.92
2023-05-24T14:36:19.974Z,1.52
2023-05-24T14:38:47.400Z,2.10
2023-05-24T14:41:15.815Z,1.80
2023-05-24T14:43:43.528Z,1.98
2023-05-24T14:46:11.605Z,2.08
2023-05-24T14:48:41.862Z,1.85
2023-05-24T14:51:10.292Z,2.25
2023-05-24T14:53:38.843Z,2.08
2023-05-24T14:56:08.723Z,2.00
2023-05-24T14:58:36.923Z,2.20
2023-05-24T15:01:04.566Z,2.42
2023-05-24T15:03:34.042Z,2.10
2023-05-24T15:06:02.747Z,2.25
2023-05-24T15:08:31.552Z,2.25
2023-05-24T15:10:59.269Z,2.15
2023-05-24T15:13:27.566Z,1.85
2023-05-24T15:15:57.103Z,2.40
2023-05-24T15:18:25.852Z,2.13
2023-05-24T15:20:55.914Z,2.05
2023-05-24T15:23:25.748Z,2.35
2023-05-24T15:25:53.588Z,2.60
2023-05-24T15:28:23.464Z,2.45
2023-05-24T15:30:53.635Z,2.53
2023-05-24T15:33:21.250Z,2.30
2023-05-24T15:35:48.710Z,2.17
2023-05-24T15:38:17.921Z,2.10
2023-05-24T15:40:46.358Z,2.38
2023-05-24T15:43:16.531Z,2.85
2023-05-24T15:45:44.961Z,1.67
2023-05-24T15:48:15.658Z,2.08
2023-05-24T15:51:09.360Z,2.22
2023-05-24T15:53:30.689Z,2.58
2023-05-24T15:55:58.477Z,2.20
2023-05-24T15:58:26.071Z,2.22
2023-05-24T16:00:55.411Z,2.08
2023-05-24T16:03:23.479Z,2.20
2023-05-24T16:05:51.838Z,2.17
2023-05-24T16:08:19.455Z,2.22
2023-05-24T16:10:47.687Z,2.10
2023-05-24T16:13:15.039Z,1.85
2023-05-24T16:15:42.929Z,2.15
2023-05-24T16:18:12.137Z,2.33
2023-05-24T16:20:40.020Z,1.90
2023-05-24T16:23:07.865Z,2.10
2023-05-24T16:25:35.650Z,2.30
2023-05-24T16:28:04.035Z,2.20
2023-05-24T16:30:32.201Z,2.40
2023-05-24T16:33:00.186Z,2.30
2023-05-24T16:35:28.125Z,2.20
2023-05-24T16:37:57.499Z,2.55
2023-05-24T16:40:25.649Z,2.70
2023-05-24T16:42:54.758Z,2.40
2023-05-24T16:45:22.940Z,2.10
2023-05-24T16:47:51.448Z,2.30
2023-05-24T16:50:19.218Z,2.50
2023-05-24T16:52:46.973Z,2.50
2023-05-24T16:55:16.534Z,2.22
2023-05-24T16:57:44.190Z,2.38
2023-05-24T17:00:12.104Z,2.28
2023-05-24T17:02:40.292Z,2.30
2023-05-24T17:05:08.120Z,2.25
2023-05-24T17:07:37.804Z,2.80
2023-05-24T17:10:06.130Z,3.53
2023-05-24T17:12:33.748Z,2.88
2023-05-24T17:15:01.469Z,2.35
2023-05-24T17:17:28.976Z,3.05
2023-05-24T17:19:56.734Z,2.47
2023-05-24T17:22:25.178Z,2.90
2023-05-24T17:24:53.119Z,2.78
2023-05-24T17:27:22.496Z,2.53
2023-05-24T17:29:50.718Z,2.55
2023-05-24T17:32:19.061Z,2.70
2023-05-24T17:34:47.200Z,2.50
2023-05-24T17:37:15.011Z,2.40
2023-05-24T17:39:43.019Z,2.53
2023-05-24T17:42:11.093Z,2.22
2023-05-24T17:44:39.519Z,2.38
2023-05-24T17:47:07.195Z,2.45
2023-05-24T17:49:35.141Z,1.75
2023-05-24T17:52:02.808Z,2.92
2023-05-24T17:54:30.498Z,2.10
2023-05-24T17:56:58.171Z,2.08
2023-05-24T17:59:25.798Z,1.80
2023-05-24T18:01:53.122Z,1.98
2023-05-24T18:04:20.616Z,2.00
2023-05-24T18:06:47.922Z,1.70
2023-05-24T18:09:16.602Z,1.95
2023-05-24T18:11:44.328Z,1.98
2023-05-24T18:14:11.954Z,2.20
2023-05-24T18:16:40.012Z,2.53
2023-05-24T18:19:07.715Z,2.70
2023-05-24T18:21:35.238Z,3.47
2023-05-24T18:24:02.766Z,3.28
2023-05-24T18:26:30.003Z,3.92
2023-05-24T18:28:57.750Z,4.60
2023-05-24T18:31:25.127Z,5.50
2023-05-24T18:33:53.174Z,3.10
2023-05-24T18:36:20.856Z,3.15
2023-05-24T18:38:48.008Z,2.78
2023-05-24T18:41:16.917Z,3.90
2023-05-24T18:43:44.878Z,4.28
2023-05-24T18:46:15.410Z,4.35
2023-05-24T18:48:43.185Z,3.45
2023-05-24T18:51:11.088Z,4.05
2023-05-24T18:53:38.899Z,3.30
2023-05-24T18:56:06.938Z,3.42
2023-05-24T18:58:34.565Z,3.42
2023-05-24T19:01:02.434Z,5.10
2023-05-24T19:03:30.030Z,4.00
2023-05-24T19:05:57.593Z,4.25
2023-05-24T19:08:25.007Z,3.60
2023-05-24T19:10:52.361Z,4.78
2023-05-24T19:13:19.960Z,4.47
2023-05-24T19:15:47.474Z,4.30
2023-05-24T19:18:15.086Z,3.90
2023-05-24T19:20:43.500Z,4.88
2023-05-24T19:23:10.764Z,4.13
2023-05-24T19:25:42.175Z,3.90
2023-05-24T19:28:11.288Z,3.63
2023-05-24T19:30:38.608Z,3.65
2023-05-24T19:33:07.415Z,3.70
2023-05-24T19:35:35.373Z,3.80
2023-05-24T19:38:03.302Z,4.80
2023-05-24T19:40:30.835Z,3.83
2023-05-24T19:42:58.467Z,3.75
2023-05-24T19:45:26.008Z,3.10
2023-05-24T19:47:53.799Z,2.85
2023-05-24T19:50:21.687Z,3.67
2023-05-24T19:52:49.426Z,3.63
2023-05-24T19:55:17.648Z,5.93
2023-05-24T19:57:45.205Z,3.65
2023-05-24T20:00:14.274Z,4.40
2023-05-24T20:02:41.829Z,5.00
2023-05-24T20:05:09.606Z,4.45
2023-05-24T20:07:37.219Z,3.92
2023-05-24T20:10:05.989Z,4.35
2023-05-24T20:12:34.872Z,4.13
2023-05-24T20:15:02.786Z,4.72
2023-05-24T20:17:30.866Z,3.50
2023-05-24T20:19:58.419Z,4.10
2023-05-24T20:22:26.114Z,3.63
2023-05-24T20:24:53.417Z,4.82
2023-05-24T20:27:21.738Z,5.88
2023-05-24T20:29:49.268Z,7.18
2023-05-24T20:32:17.489Z,7.57
2023-05-24T20:34:44.952Z,6.93
2023-05-24T20:37:12.479Z,6.93
2023-05-24T20:39:40.147Z,7.22
2023-05-24T20:42:08.730Z,6.90
2023-05-24T20:44:36.713Z,5.65
2023-05-24T20:47:04.351Z,6.10
2023-05-24T20:49:32.000Z,6.20
2023-05-24T20:51:59.652Z,4.78
2023-05-24T20:54:27.255Z,5.97
2023-05-24T20:56:54.723Z,5.78
2023-05-24T20:59:22.180Z,5.88
2023-05-24T21:01:49.662Z,6.07
2023-05-24T21:04:17.154Z,6.25
2023-05-24T21:06:45.066Z,5.25
2023-05-24T21:09:12.308Z,6.03
2023-05-24T21:11:39.689Z,5.72
2023-05-24T21:14:08.347Z,5.15
2023-05-24T21:16:36.734Z,6.18
2023-05-24T21:19:04.178Z,6.40
2023-05-24T21:21:31.444Z,6.40
2023-05-24T21:23:59.157Z,6.68
2023-05-24T21:26:27.073Z,6.78
2023-05-24T21:28:54.575Z,6.57
2023-05-24T21:31:23.181Z,6.55
2023-05-24T21:33:50.817Z,6.43
2023-05-24T21:36:18.804Z,6.55
2023-05-24T21:38:46.190Z,6.78
2023-05-24T21:41:13.477Z,6.85
2023-05-24T21:43:42.200Z,6.55
2023-05-24T21:46:09.905Z,6.95
2023-05-24T21:48:37.541Z,6.40
2023-05-24T21:51:05.619Z,6.43
2023-05-24T21:53:33.230Z,7.00
2023-05-24T21:56:00.695Z,6.15
2023-05-24T21:58:28.074Z,6.60
2023-05-24T22:00:55.595Z,7.70
2023-05-24T22:03:23.078Z,6.60
2023-05-24T22:05:50.842Z,6.07
2023-05-24T22:08:18.696Z,5.78
2023-05-24T22:10:46.205Z,5.18
2023-05-24T22:13:13.803Z,6.40
2023-05-24T22:15:41.727Z,6.43
2023-05-24T22:18:09.551Z,5.30
2023-05-24T22:20:37.172Z,5.40
2023-05-24T22:23:04.417Z,6.40
2023-05-24T22:25:31.926Z,5.22
2023-05-24T22:27:59.441Z,5.70
2023-05-24T22:30:27.383Z,6.05
2023-05-24T22:32:56.114Z,6.63
2023-05-24T22:35:23.710Z,6.82
2023-05-24T22:37:51.350Z,5.80
2023-05-24T22:40:18.901Z,6.60
2023-05-24T22:42:46.836Z,5.38
2023-05-24T22:45:14.452Z,5.72
2023-05-24T22:47:41.983Z,5.80
2023-05-24T22:50:09.990Z,6.45
2023-05-24T22:52:42.746Z,6.30
2023-05-24T22:55:13.254Z,6.28
2023-05-24T22:57:40.945Z,6.32
2023-05-24T23:00:08.990Z,5.97
2023-05-24T23:02:36.826Z,6.50
2023-05-24T23:05:05.702Z,6.63
2023-05-24T23:07:33.279Z,7.60
2023-05-24T23:10:00.983Z,9.43
2023-05-24T23:12:28.298Z,8.75
2023-05-24T23:14:58.470Z,7.65
2023-05-24T23:17:26.615Z,7.22
2023-05-24T23:19:54.379Z,6.72
2023-05-24T23:22:24.146Z,8.27
2023-05-24T23:24:51.619Z,7.18
2023-05-24T23:27:19.213Z,6.47
2023-05-24T23:29:46.942Z,6.68
2023-05-24T23:32:14.367Z,7.80
2023-05-24T23:34:41.669Z,6.25
2023-05-24T23:37:09.345Z,6.70
2023-05-24T23:39:37.253Z,6.78
2023-05-24T23:42:05.191Z,6.30
2023-05-24T23:44:32.666Z,6.20
2023-05-24T23:47:00.206Z,7.13
2023-05-24T23:49:28.144Z,6.93
2023-05-24T23:51:55.604Z,6.32
2023-05-24T23:54:23.086Z,6.43
2023-05-24T23:56:53.653Z,6.55
2023-05-24T23:59:21.336Z,6.40
